Time;durP1;ratioP1;P1;durP2;ratioP2;P2;SDS_P1;SDS_P2;PMS_P1;PMS_P2;Temp;Humidity;BMP_temperature;BMP_pressure;BME280_temperature;BME280_humidity;BME280_pressure;Samples;Min_cycle;Max_cycle;Signal;HPM_P1;HPM_P2
2022/07/18 04:00:37;;;;;;;6.00;2.60;;;17.30;76.80;;;;;;5897982;23;20470;-68
2022/07/18 04:03:04;;;;;;;2.93;2.73;;;17.20;77.70;;;;;;4976078;28;20467;-67
2022/07/18 04:05:31;;;;;;;5.00;3.10;;;17.10;78.20;;;;;;4976462;28;20521;-68
2022/07/18 04:07:57;;;;;;;2.60;2.50;;;17.00;79.10;;;;;;4976325;28;20462;-68
2022/07/18 04:10:24;;;;;;;2.60;2.50;;;16.90;79.70;;;;;;4977262;28;20502;-68
2022/07/18 04:12:53;;;;;;;4.67;2.70;;;16.80;80.70;;;;;;4976622;28;20455;-68
2022/07/18 04:15:21;;;;;;;2.57;2.37;;;16.80;81.80;;;;;;4976235;28;20457;-68
2022/07/18 04:17:50;;;;;;;2.50;2.40;;;16.80;82.80;;;;;;4984834;28;20461;-69
2022/07/18 04:20:18;;;;;;;2.60;2.40;;;16.70;83.70;;;;;;4989095;28;20510;-67
2022/07/18 04:22:47;;;;;;;2.60;2.30;;;16.60;84.50;;;;;;4989259;28;20542;-68
2022/07/18 04:25:13;;;;;;;3.87;2.53;;;16.60;85.40;;;;;;4982575;28;20478;-67
2022/07/18 04:27:40;;;;;;;2.80;2.60;;;16.70;86.10;;;;;;4976590;28;20481;-67
2022/07/18 04:30:08;;;;;;;2.80;2.60;;;16.70;86.70;;;;;;4976263;28;20455;-68
2022/07/18 04:32:35;;;;;;;2.87;2.60;;;16.70;87.30;;;;;;4976470;28;20451;-68
2022/07/18 04:35:04;;;;;;;4.73;2.70;;;16.80;88.00;;;;;;4975806;28;20854;-67
2022/07/18 04:37:31;;;;;;;3.37;3.17;;;16.80;87.90;;;;;;4975943;28;20454;-68
2022/07/18 04:39:58;;;;;;;3.37;3.07;;;16.90;89.20;;;;;;4976181;28;20505;-67
2022/07/18 04:42:25;;;;;;;3.73;3.43;;;16.90;90.20;;;;;;4975936;28;20486;-67
2022/07/18 04:44:52;;;;;;;3.30;3.10;;;16.90;90.70;;;;;;4975577;28;20513;-68
2022/07/18 04:47:19;;;;;;;4.03;3.27;;;16.90;91.50;;;;;;4975215;28;20823;-67
2022/07/18 04:49:46;;;;;;;4.03;2.90;;;17.00;92.30;;;;;;4975667;28;20455;-67
2022/07/18 04:52:14;;;;;;;6.23;3.70;;;17.00;93.10;;;;;;4978668;28;20477;-67
2022/07/18 04:54:41;;;;;;;7.13;3.73;;;17.10;93.60;;;;;;4976717;28;20459;-67
2022/07/18 04:57:08;;;;;;;4.73;2.90;;;17.10;94.20;;;;;;4975532;28;20451;-67
2022/07/18 04:59:35;;;;;;;5.80;4.20;;;17.20;94.90;;;;;;4975455;28;20946;-68
2022/07/18 05:02:02;;;;;;;3.50;3.20;;;17.20;95.30;;;;;;4975589;28;20491;-68
2022/07/18 05:04:29;;;;;;;4.80;3.90;;;17.20;96.00;;;;;;4975204;28;20950;-68
2022/07/18 05:06:56;;;;;;;4.50;4.20;;;17.20;96.90;;;;;;4975062;28;20461;-67
2022/07/18 05:09:24;;;;;;;5.27;4.07;;;17.10;97.90;;;;;;4975327;28;20459;-68
2022/07/18 05:11:50;;;;;;;3.83;3.50;;;17.10;98.80;;;;;;4975360;28;20479;-67
2022/07/18 05:14:17;;;;;;;6.30;3.90;;;17.10;99.60;;;;;;4975300;28;20454;-67
2022/07/18 05:16:44;;;;;;;4.60;4.20;;;17.20;99.90;;;;;;4975126;28;20455;-67
2022/07/18 05:19:10;;;;;;;3.60;3.40;;;17.20;99.90;;;;;;4975176;28;20458;-67
2022/07/18 05:21:37;;;;;;;4.43;4.03;;;17.20;99.90;;;;;;4974875;28;20481;-67
2022/07/18 05:24:04;;;;;;;4.60;4.13;;;17.30;99.90;;;;;;4974989;28;20483;-67
2022/07/18 05:26:32;;;;;;;4.07;3.60;;;17.30;99.90;;;;;;4978437;28;20459;-67
2022/07/18 05:28:59;;;;;;;4.27;3.80;;;17.50;99.90;;;;;;4978395;28;20817;-66
2022/07/18 05:31:26;;;;;;;5.63;3.97;;;17.60;99.90;;;;;;4978414;28;20474;-67
2022/07/18 05:33:52;;;;;;;4.97;3.60;;;17.80;99.90;;;;;;4978802;28;20494;-67
2022/07/18 05:36:19;;;;;;;7.20;4.50;;;17.90;99.90;;;;;;4978255;28;20455;-67
2022/07/18 05:38:46;;;;;;;5.10;4.57;;;18.10;99.80;;;;;;4978024;28;20537;-68
2022/07/18 05:41:13;;;;;;;6.20;4.10;;;18.20;99.40;;;;;;4977884;28;20478;-67
2022/07/18 05:43:41;;;;;;;4.63;4.23;;;18.30;98.90;;;;;;4977654;28;20470;-68
2022/07/18 05:46:08;;;;;;;7.73;4.60;;;18.50;98.40;;;;;;4978697;28;20458;-68
2022/07/18 05:48:35;;;;;;;4.10;3.67;;;18.60;97.60;;;;;;4978201;28;20458;-68
2022/07/18 05:51:02;;;;;;;12.23;4.13;;;18.60;96.50;;;;;;4978146;28;20474;-68
2022/07/18 05:53:28;;;;;;;3.80;3.60;;;18.70;97.00;;;;;;4977836;28;20450;-67
2022/07/18 05:55:55;;;;;;;4.67;4.27;;;18.90;96.70;;;;;;4977833;28;20465;-68
2022/07/18 05:58:22;;;;;;;5.73;3.97;;;19.00;95.90;;;;;;4977941;28;20828;-67
2022/07/18 06:00:50;;;;;;;3.77;3.50;;;19.20;95.10;;;;;;4977720;28;20482;-67
2022/07/18 06:03:17;;;;;;;3.93;3.63;;;19.20;92.90;;;;;;4977655;28;20471;-67
2022/07/18 06:05:44;;;;;;;5.20;4.47;;;19.30;92.90;;;;;;4977653;28;20515;-67
2022/07/18 06:08:10;;;;;;;10.97;3.20;;;19.40;91.70;;;;;;4977450;28;20466;-67
2022/07/18 06:10:37;;;;;;;5.00;3.33;;;19.60;91.90;;;;;;4977235;28;20501;-67
2022/07/18 06:13:04;;;;;;;3.57;3.17;;;19.70;90.90;;;;;;4977784;28;20450;-68
2022/07/18 06:15:31;;;;;;;3.60;3.40;;;19.90;90.00;;;;;;4978209;28;20832;-67
2022/07/18 06:17:59;;;;;;;4.97;3.20;;;20.10;88.90;;;;;;4977197;28;20505;-67
2022/07/18 06:20:26;;;;;;;4.20;3.87;;;20.30;85.70;;;;;;4977038;28;20461;-68
2022/07/18 06:22:52;;;;;;;3.87;3.43;;;20.50;82.80;;;;;;4977336;28;20885;-67
2022/07/18 06:25:19;;;;;;;3.40;3.20;;;20.70;83.60;;;;;;4977396;28;20938;-67
2022/07/18 06:27:46;;;;;;;5.80;3.30;;;20.80;82.60;;;;;;4986896;28;20462;-67
2022/07/18 06:30:13;;;;;;;3.40;3.10;;;21.00;84.00;;;;;;4986287;28;20454;-66
2022/07/18 06:32:40;;;;;;;5.37;3.57;;;21.10;80.70;;;;;;4981803;28;21004;-67
2022/07/18 06:35:09;;;;;;;4.57;3.60;;;21.30;79.20;;;;;;4979696;28;20439;-67
2022/07/18 06:37:36;;;;;;;4.30;3.53;;;21.40;78.40;;;;;;4978185;28;20481;-67
2022/07/18 06:40:03;;;;;;;5.60;3.60;;;21.50;77.50;;;;;;4979217;28;20493;-67
2022/07/18 06:42:30;;;;;;;2.60;2.50;;;21.70;77.00;;;;;;4978000;28;20478;-67
2022/07/18 06:44:57;;;;;;;3.03;2.83;;;21.90;74.20;;;;;;4977529;28;20458;-67
2022/07/18 06:47:23;;;;;;;3.40;3.10;;;22.20;74.30;;;;;;4977310;28;20465;-67
2022/07/18 06:49:50;;;;;;;2.90;2.70;;;22.50;73.30;;;;;;4977531;28;20455;-67
2022/07/18 06:52:18;;;;;;;7.80;2.80;;;22.80;71.90;;;;;;4977627;28;20478;-67
2022/07/18 06:54:45;;;;;;;2.80;2.60;;;23.20;68.20;;;;;;4976766;28;20455;-67
2022/07/18 06:57:12;;;;;;;4.90;2.70;;;23.60;68.50;;;;;;4976558;28;20465;-67
2022/07/18 06:59:38;;;;;;;3.50;2.70;;;24.30;67.10;;;;;;4976159;28;20960;-68
2022/07/18 07:02:05;;;;;;;3.10;2.80;;;24.90;64.00;;;;;;4976133;28;20486;-67
2022/07/18 07:04:32;;;;;;;2.80;2.60;;;25.70;63.40;;;;;;4976130;28;21001;-67
2022/07/18 07:06:59;;;;;;;5.40;2.67;;;26.50;59.70;;;;;;4976989;28;20808;-68
2022/07/18 07:09:27;;;;;;;4.07;2.80;;;27.10;58.50;;;;;;4976053;28;20450;-67
2022/07/18 07:11:54;;;;;;;3.47;2.83;;;27.70;56.00;;;;;;4977221;28;20463;-68
2022/07/18 07:14:20;;;;;;;2.97;2.77;;;28.30;55.60;;;;;;4977109;28;20447;-67
2022/07/18 07:16:48;;;;;;;3.23;3.03;;;28.70;53.80;;;;;;4976774;28;20458;-68
2022/07/18 07:19:14;;;;;;;4.43;2.80;;;29.10;54.10;;;;;;4976545;28;20454;-68
2022/07/18 07:21:41;;;;;;;6.37;2.50;;;29.60;53.20;;;;;;4976411;28;20479;-67
2022/07/18 07:24:08;;;;;;;6.03;2.80;;;30.00;52.10;;;;;;4976752;28;20474;-68
2022/07/18 07:26:36;;;;;;;2.60;2.47;;;30.40;50.30;;;;;;4976838;28;20454;-68
2022/07/18 07:29:03;;;;;;;3.83;2.63;;;30.70;50.60;;;;;;4977256;28;20873;-68
2022/07/18 07:31:30;;;;;;;2.87;2.60;;;31.10;49.60;;;;;;4976123;28;20478;-67
2022/07/18 07:33:57;;;;;;;4.43;2.60;;;31.30;49.60;;;;;;4975749;28;20455;-68
2022/07/18 07:36:24;;;;;;;6.73;2.40;;;31.60;49.10;;;;;;4976206;28;20458;-67
2022/07/18 07:38:50;;;;;;;2.80;2.60;;;31.80;48.60;;;;;;4976083;28;20509;-68
2022/07/18 07:41:17;;;;;;;4.73;2.50;;;31.90;48.50;;;;;;4976002;28;20876;-67
2022/07/18 07:43:45;;;;;;;3.10;2.77;;;32.00;47.30;;;;;;4976007;28;20478;-67
2022/07/18 07:46:12;;;;;;;3.87;2.27;;;32.30;47.00;;;;;;4975800;28;20455;-68
2022/07/18 07:48:39;;;;;;;3.83;2.73;;;32.60;47.30;;;;;;4975931;28;20458;-69
2022/07/18 07:51:06;;;;;;;3.50;2.27;;;33.00;47.00;;;;;;4975617;28;20477;-68
2022/07/18 07:53:33;;;;;;;2.90;2.60;;;33.30;44.80;;;;;;4976687;28;20945;-67
2022/07/18 07:56:00;;;;;;;3.87;2.50;;;33.30;43.90;;;;;;4976218;28;20458;-68
2022/07/18 07:58:26;;;;;;;4.07;2.23;;;33.80;44.50;;;;;;4979633;28;20458;-69
2022/07/18 08:00:54;;;;;;;3.83;2.20;;;33.80;43.50;;;;;;4975357;28;20482;-68
2022/07/18 08:03:21;;;;;;;3.30;2.43;;;34.20;43.40;;;;;;4976381;28;20493;-68
2022/07/18 08:05:49;;;;;;;3.53;2.70;;;34.60;43.80;;;;;;4975736;28;20460;-68
2022/07/18 08:08:16;;;;;;;2.77;2.57;;;35.10;42.90;;;;;;4975770;28;20453;-68
2022/07/18 08:10:44;;;;;;;2.57;2.40;;;35.30;41.10;;;;;;4975216;28;21011;-69
2022/07/18 08:13:12;;;;;;;2.80;2.53;;;35.50;41.80;;;;;;4975681;28;20450;-68
2022/07/18 08:15:39;;;;;;;3.53;2.63;;;35.30;41.60;;;;;;4974808;28;20454;-68
2022/07/18 08:18:08;;;;;;;3.17;2.23;;;35.70;40.60;;;;;;4975574;28;20486;-69
2022/07/18 08:20:35;;;;;;;2.90;2.10;;;36.00;40.80;;;;;;4975365;28;20474;-68
2022/07/18 08:23:03;;;;;;;2.67;2.47;;;36.50;39.00;;;;;;4975380;28;20458;-68
2022/07/18 08:25:33;;;;;;;2.53;2.33;;;36.90;38.90;;;;;;4975042;28;20823;-68
2022/07/18 08:28:01;;;;;;;2.40;2.20;;;36.90;38.20;;;;;;4975619;28;20454;-69
2022/07/18 08:30:29;;;;;;;2.50;2.13;;;36.90;37.80;;;;;;4975546;28;20458;-69
2022/07/18 08:32:56;;;;;;;2.60;2.10;;;36.80;37.90;;;;;;4975223;28;20820;-69
2022/07/18 08:35:24;;;;;;;7.07;3.20;;;36.80;38.20;;;;;;4975297;28;20458;-69
2022/07/18 08:37:51;;;;;;;2.47;2.27;;;37.10;37.80;;;;;;4975440;28;20458;-68
2022/07/18 08:40:18;;;;;;;3.10;2.53;;;37.30;38.90;;;;;;4975082;28;20454;-68
2022/07/18 08:42:45;;;;;;;4.00;2.40;;;37.50;37.90;;;;;;4975246;28;20458;-68
2022/07/18 08:45:11;;;;;;;3.00;2.20;;;38.10;37.80;;;;;;4975199;28;20466;-68
2022/07/18 08:47:38;;;;;;;3.13;2.10;;;38.40;37.60;;;;;;4974884;28;20965;-68
2022/07/18 08:50:06;;;;;;;2.83;2.63;;;38.50;38.00;;;;;;4975070;28;20466;-68
2022/07/18 08:52:37;;;;;;;4.93;2.63;;;39.00;36.50;;;;;;4974871;28;20563;-69
2022/07/18 08:55:05;;;;;;;4.53;1.90;;;39.10;36.00;;;;;;4975087;28;20549;-69
2022/07/18 08:57:31;;;;;;;2.40;1.80;;;38.70;36.70;;;;;;4974907;28;20453;-69
2022/07/18 08:59:58;;;;;;;2.60;2.40;;;39.10;34.40;;;;;;4978366;28;20474;-69
2022/07/18 09:02:26;;;;;;;2.60;2.20;;;39.20;36.50;;;;;;4978581;28;20486;-69
2022/07/18 09:04:53;;;;;;;4.07;2.17;;;39.10;34.80;;;;;;4978583;28;21098;-69
2022/07/18 09:07:29;;;;;;;7.10;2.33;;;39.50;33.60;;;;;;4978748;28;20230;-69
2022/07/18 09:09:58;;;;;;;5.67;2.10;;;39.90;32.90;;;;;;4978804;28;20198;-69
2022/07/18 09:12:26;;;;;;;2.37;2.17;;;40.30;33.30;;;;;;4978431;28;20219;-68
2022/07/18 09:14:53;;;;;;;3.00;2.13;;;40.30;32.70;;;;;;4978539;28;20650;-69
2022/07/18 09:17:22;;;;;;;1.73;1.70;;;39.90;33.10;;;;;;4978553;28;20195;-68
2022/07/18 09:20:01;;;;;;;5.60;1.95;;;40.30;32.20;;;;;;4978588;28;20199;-69
2022/07/18 09:22:32;;;;;;;3.65;2.30;;;40.50;31.70;;;;;;4978586;28;20222;-69
2022/07/18 09:25:03;;;;;;;2.15;1.83;;;40.70;32.10;;;;;;4978111;28;20203;-67
2022/07/18 09:27:35;;;;;;;4.05;1.70;;;40.70;32.30;;;;;;4979094;28;20187;-69
2022/07/18 09:30:19;;;;;;;2.70;1.90;;;41.20;33.40;;;;;;4980500;28;20194;-69
2022/07/18 09:32:51;;;;;;;3.08;2.00;;;40.90;33.00;;;;;;4977582;28;20229;-68
2022/07/18 09:35:20;;;;;;;3.80;1.70;;;41.10;31.10;;;;;;4978431;28;20183;-68
2022/07/18 09:37:59;;;;;;;1.98;1.70;;;41.40;30.50;;;;;;4978466;28;20207;-69
2022/07/18 09:40:30;;;;;;;3.60;2.40;;;41.60;29.60;;;;;;4978421;28;20183;-70
2022/07/18 09:42:58;;;;;;;2.55;2.38;;;41.60;30.00;;;;;;4978365;28;20213;-68
2022/07/18 09:45:27;;;;;;;4.95;2.10;;;41.30;31.80;;;;;;4978286;28;20222;-69
2022/07/18 09:47:56;;;;;;;6.78;1.80;;;41.50;31.20;;;;;;4977853;28;20594;-69
2022/07/18 09:50:32;;;;;;;4.35;1.80;;;42.00;30.00;;;;;;4978006;28;20210;-69
2022/07/18 09:53:09;;;;;;;2.03;1.92;;;42.50;29.60;;;;;;4978203;28;20186;-69
2022/07/18 09:55:44;;;;;;;4.78;2.08;;;42.70;28.70;;;;;;4977940;28;20532;-70
2022/07/18 09:58:11;;;;;;;3.58;1.95;;;43.00;28.60;;;;;;4978030;28;20182;-69
2022/07/18 10:00:39;;;;;;;3.17;2.10;;;43.00;28.50;;;;;;4978153;28;20231;-69
2022/07/18 10:03:08;;;;;;;2.55;1.98;;;43.30;28.40;;;;;;4978794;28;20630;-69
2022/07/18 10:05:37;;;;;;;2.00;1.90;;;43.40;28.40;;;;;;4978958;28;20218;-70
2022/07/18 10:08:07;;;;;;;1.90;1.80;;;43.50;27.60;;;;;;4978271;28;20202;-69
2022/07/18 10:10:34;;;;;;;1.77;1.70;;;43.60;27.30;;;;;;4977562;28;20293;-69
2022/07/18 10:13:03;;;;;;;2.40;2.20;;;43.60;27.40;;;;;;4979089;28;20199;-69
2022/07/18 10:15:33;;;;;;;2.20;2.10;;;43.40;27.50;;;;;;4979286;28;20724;-72
2022/07/18 10:18:01;;;;;;;1.75;1.63;;;43.00;27.20;;;;;;4978884;28;20210;-69
2022/07/18 10:20:34;;;;;;;2.90;1.90;;;42.70;27.40;;;;;;4979173;28;20195;-69
2022/07/18 10:23:11;;;;;;;2.17;1.90;;;42.10;28.80;;;;;;4979812;28;20229;-69
2022/07/18 10:25:38;;;;;;;2.67;2.47;;;42.10;27.90;;;;;;4980264;28;20206;-70
2022/07/18 10:28:11;;;;;;;2.75;1.88;;;41.60;28.40;;;;;;4979321;28;20214;-69
2022/07/18 10:30:43;;;;;;;1.98;1.98;;;41.70;28.70;;;;;;4979039;28;20219;-69
2022/07/18 10:33:39;;;;;;;2.47;1.80;;;41.50;28.40;;;;;;4978967;28;20183;-70
2022/07/18 10:36:08;;;;;;;1.95;1.80;;;41.50;28.20;;;;;;4978646;28;20198;-69
2022/07/18 10:38:35;;;;;;;3.72;2.15;;;41.50;29.40;;;;;;4978053;28;20551;-70
2022/07/18 10:41:06;;;;;;;1.95;1.77;;;41.50;28.80;;;;;;4986947;28;20219;-69
2022/07/18 10:43:43;;;;;;;2.58;2.00;;;41.60;29.20;;;;;;4993479;28;20187;-69
2022/07/18 10:46:12;;;;;;;1.92;1.80;;;41.80;29.10;;;;;;4979752;28;20190;-69
2022/07/18 10:48:58;;;;;;;2.53;1.90;;;41.70;29.30;;;;;;4977934;28;20207;-70
2022/07/18 10:51:35;;;;;;;1.88;1.85;;;41.70;28.00;;;;;;4978138;28;20223;-70
2022/07/18 10:54:12;;;;;;;5.15;2.10;;;42.00;28.10;;;;;;4979241;28;20179;-69
2022/07/18 10:57:10;;;;;;;2.03;1.85;;;42.00;28.40;;;;;;4978475;28;20198;-69
2022/07/18 10:59:58;;;;;;;1.75;1.65;;;42.30;27.50;;;;;;4978190;28;20215;-70
2022/07/18 11:02:33;;;;;;;1.95;1.60;;;42.20;26.80;;;;;;4978331;28;20226;-69
2022/07/18 11:04:59;;;;;;;1.77;1.77;;;42.00;27.20;;;;;;4978228;28;20206;-69
2022/07/18 11:07:26;;;;;;;4.97;2.25;;;41.60;29.10;;;;;;4977651;28;20209;-69
2022/07/18 11:09:53;;;;;;;2.50;1.67;;;41.90;28.80;;;;;;4976547;28;20195;-70
2022/07/18 11:12:29;;;;;;;1.65;1.55;;;42.10;29.20;;;;;;4977129;28;20221;-69
2022/07/18 11:15:02;;;;;;;1.83;1.60;;;42.30;28.70;;;;;;4976696;28;20195;-69
2022/07/18 11:18:00;;;;;;;2.35;2.03;;;42.20;28.10;;;;;;4977270;28;20196;-69
2022/07/18 11:20:30;;;;;;;1.50;1.50;;;41.80;28.40;;;;;;4976586;28;20194;-69
2022/07/18 11:22:57;;;;;;;1.80;1.80;;;41.70;27.80;;;;;;4977232;28;20195;-69
2022/07/18 11:25:27;;;;;;;1.53;1.53;;;41.50;27.70;;;;;;4976488;28;20222;-69
2022/07/18 11:27:54;;;;;;;1.98;1.88;;;41.30;27.50;;;;;;4976005;28;20182;-69
2022/07/18 11:30:23;;;;;;;1.40;1.40;;;40.90;27.80;;;;;;4976302;28;20253;-70
2022/07/18 11:32:51;;;;;;;1.70;1.60;;;40.30;27.70;;;;;;4976620;28;20209;-70
2022/07/18 11:35:23;;;;;;;2.03;1.70;;;40.20;28.40;;;;;;4975961;28;20567;-69
2022/07/18 11:37:51;;;;;;;2.90;1.80;;;39.90;28.40;;;;;;4976631;28;20234;-69
2022/07/18 11:40:18;;;;;;;3.13;1.80;;;39.90;28.50;;;;;;4976839;28;20199;-69
2022/07/18 11:42:45;;;;;;;2.77;1.80;;;39.60;29.30;;;;;;4975675;28;20202;-69
2022/07/18 11:45:14;;;;;;;2.90;1.70;;;39.70;29.20;;;;;;4976638;28;20225;-70
2022/07/18 11:47:47;;;;;;;2.30;2.17;;;39.60;30.00;;;;;;4977856;28;20198;-68
2022/07/18 11:50:15;;;;;;;3.80;1.50;;;39.50;29.50;;;;;;4976527;28;20429;-69
2022/07/18 11:52:43;;;;;;;1.70;1.40;;;39.30;29.90;;;;;;4977734;28;20210;-69
2022/07/18 11:55:11;;;;;;;1.47;1.30;;;39.20;29.70;;;;;;4977119;28;20450;-68
2022/07/18 11:57:38;;;;;;;1.40;1.40;;;38.70;27.40;;;;;;4976958;28;20941;-70
2022/07/18 12:00:16;;;;;;;3.53;1.60;;;37.80;27.80;;;;;;4977639;28;20460;-69
2022/07/18 12:03:11;;;;;;;1.20;1.20;;;37.50;28.80;;;;;;4978400;28;20434;-71
2022/07/18 12:05:39;;;;;;;1.50;1.40;;;37.10;29.00;;;;;;4977065;28;20484;-69
2022/07/18 12:08:27;;;;;;;1.60;1.50;;;37.00;28.00;;;;;;4977049;28;20458;-69
2022/07/18 12:11:07;;;;;;;1.87;1.60;;;37.00;29.10;;;;;;4976969;28;20470;-68
2022/07/18 12:13:45;;;;;;;3.10;1.73;;;37.00;28.60;;;;;;4976314;28;20441;-69
2022/07/18 12:16:33;;;;;;;1.50;1.40;;;37.00;28.30;;;;;;4977199;28;20427;-69
2022/07/18 12:19:07;;;;;;;1.70;1.60;;;37.00;29.50;;;;;;4977026;28;20500;-69
2022/07/18 12:21:49;;;;;;;2.00;1.90;;;36.80;29.90;;;;;;4976873;28;20839;-70
2022/07/18 12:24:41;;;;;;;1.67;1.67;;;36.80;29.40;;;;;;4977634;28;20537;-68
2022/07/18 12:27:19;;;;;;;2.07;1.97;;;36.70;30.30;;;;;;4978246;28;20844;-68
2022/07/18 12:30:02;;;;;;;2.00;1.90;;;36.80;30.80;;;;;;4975915;28;20438;-70
2022/07/18 12:32:30;;;;;;;1.70;1.60;;;37.00;31.10;;;;;;4976359;28;20474;-71
2022/07/18 12:35:02;;;;;;;1.47;1.47;;;37.10;30.00;;;;;;4978701;28;20450;-68
2022/07/18 12:37:30;;;;;;;2.30;2.10;;;37.20;30.40;;;;;;4980101;28;20453;-68
2022/07/18 12:39:58;;;;;;;2.23;2.00;;;37.20;30.40;;;;;;4979629;28;20477;-69
2022/07/18 12:42:29;;;;;;;2.33;1.73;;;37.40;31.70;;;;;;4979629;28;20477;-69
2022/07/18 12:44:56;;;;;;;3.30;1.97;;;37.60;30.00;;;;;;4979184;28;20846;-69
2022/07/18 12:47:23;;;;;;;3.50;1.90;;;37.60;29.20;;;;;;4979548;28;20462;-68
2022/07/18 12:49:49;;;;;;;2.00;1.90;;;37.50;30.00;;;;;;4979624;28;20467;-69
2022/07/18 12:52:18;;;;;;;1.97;1.87;;;37.40;30.20;;;;;;4979509;28;20477;-69
2022/07/18 12:54:44;;;;;;;2.20;1.87;;;37.40;31.10;;;;;;4979538;28;20450;-68
2022/07/18 12:57:11;;;;;;;5.63;2.03;;;37.40;33.40;;;;;;4979215;28;20458;-69
2022/07/18 12:59:38;;;;;;;2.10;2.00;;;37.60;31.80;;;;;;4979754;28;20464;-68
2022/07/18 13:02:05;;;;;;;2.47;2.27;;;37.70;30.10;;;;;;4979849;28;20529;-69
2022/07/18 13:04:32;;;;;;;8.43;2.00;;;37.80;31.50;;;;;;4978612;28;20796;-69
2022/07/18 13:06:59;;;;;;;2.30;2.10;;;37.80;30.90;;;;;;4979340;28;20442;-69
2022/07/18 13:09:27;;;;;;;1.77;1.67;;;37.80;31.50;;;;;;4978722;28;20465;-68
2022/07/18 13:11:54;;;;;;;1.90;1.80;;;37.70;31.00;;;;;;4978810;28;20481;-68
2022/07/18 13:14:21;;;;;;;7.00;2.10;;;37.60;31.60;;;;;;4978830;28;20534;-69
2022/07/18 13:16:49;;;;;;;2.40;2.30;;;37.60;30.60;;;;;;4978663;28;20469;-68
2022/07/18 13:19:16;;;;;;;3.17;1.77;;;37.60;30.70;;;;;;4978538;28;20454;-69
2022/07/18 13:21:44;;;;;;;2.23;1.80;;;37.70;30.60;;;;;;4978434;28;20478;-70
2022/07/18 13:24:11;;;;;;;2.50;1.90;;;37.70;32.00;;;;;;4978575;28;20454;-68
2022/07/18 13:26:40;;;;;;;2.60;2.40;;;37.50;32.10;;;;;;4978514;28;20527;-69
2022/07/18 13:29:07;;;;;;;3.17;2.50;;;37.50;31.20;;;;;;4978413;28;20494;-69
2022/07/18 13:31:36;;;;;;;1.97;1.83;;;37.50;32.50;;;;;;4977957;28;21007;-69
2022/07/18 13:34:03;;;;;;;3.50;2.50;;;37.50;30.30;;;;;;4978154;28;20458;-69
2022/07/18 13:36:32;;;;;;;2.80;2.00;;;37.30;30.20;;;;;;4978037;28;20450;-69
2022/07/18 13:39:00;;;;;;;3.23;1.77;;;37.30;32.20;;;;;;4977734;28;20959;-68
2022/07/18 13:41:27;;;;;;;3.80;2.00;;;37.30;31.30;;;;;;4977378;28;20906;-68
2022/07/18 13:43:55;;;;;;;2.70;2.07;;;36.90;32.70;;;;;;4977946;28;20461;-68
2022/07/18 13:46:22;;;;;;;2.07;1.60;;;36.70;32.20;;;;;;4976591;28;20529;-68
2022/07/18 13:48:49;;;;;;;1.87;1.77;;;36.70;33.00;;;;;;4977846;28;20817;-68
2022/07/18 13:51:16;;;;;;;2.03;1.93;;;36.60;32.30;;;;;;4978024;28;20478;-69
2022/07/18 13:53:43;;;;;;;4.03;1.83;;;36.60;31.80;;;;;;4978677;28;20454;-68
2022/07/18 13:56:10;;;;;;;2.47;1.90;;;36.80;33.40;;;;;;4977646;28;20457;-68
2022/07/18 13:58:36;;;;;;;3.80;1.90;;;36.90;32.10;;;;;;4977682;28;20458;-68
2022/07/18 14:01:05;;;;;;;2.50;1.70;;;37.10;31.40;;;;;;4977268;28;20486;-68
2022/07/18 14:03:32;;;;;;;1.87;1.70;;;37.30;32.50;;;;;;4977732;28;20465;-68
2022/07/18 14:05:58;;;;;;;5.47;2.33;;;37.30;30.50;;;;;;4977698;28;20504;-68
2022/07/18 14:08:25;;;;;;;3.33;1.60;;;37.30;31.30;;;;;;4977271;28;20960;-67
2022/07/18 14:10:52;;;;;;;4.20;1.90;;;37.40;31.90;;;;;;4977408;28;20478;-69
2022/07/18 14:13:19;;;;;;;1.43;1.43;;;37.30;30.60;;;;;;4977496;28;20461;-69
2022/07/18 14:15:45;;;;;;;1.93;1.83;;;37.20;30.70;;;;;;4977624;28;20863;-69
2022/07/18 14:18:13;;;;;;;2.00;2.00;;;36.80;30.60;;;;;;4977189;28;20458;-69
2022/07/18 14:20:40;;;;;;;3.43;1.73;;;36.60;30.60;;;;;;4977191;28;20478;-69
2022/07/18 14:23:07;;;;;;;1.70;1.60;;;36.50;30.50;;;;;;4977437;28;20461;-69
2022/07/18 14:25:34;;;;;;;2.10;1.80;;;36.50;32.00;;;;;;4977268;28;20473;-67
2022/07/18 14:28:01;;;;;;;1.57;1.57;;;36.50;31.30;;;;;;4977070;28;20527;-68
2022/07/18 14:30:27;;;;;;;1.60;1.50;;;36.70;31.10;;;;;;4976872;28;20458;-69
2022/07/18 14:32:54;;;;;;;1.70;1.60;;;36.70;30.10;;;;;;4977013;28;20454;-69
2022/07/18 14:35:22;;;;;;;1.93;1.80;;;36.70;31.60;;;;;;4977012;28;20454;-69
2022/07/18 14:37:49;;;;;;;1.40;1.40;;;36.70;31.70;;;;;;4976948;28;20458;-68
2022/07/18 14:40:17;;;;;;;1.43;1.33;;;36.80;32.00;;;;;;4976700;28;20942;-68
2022/07/18 14:42:44;;;;;;;1.40;1.30;;;36.90;30.90;;;;;;4976680;28;20968;-69
2022/07/18 14:45:11;;;;;;;1.70;1.60;;;37.10;31.80;;;;;;4976627;28;20485;-69
2022/07/18 14:47:38;;;;;;;1.70;1.60;;;37.00;30.40;;;;;;4976611;28;20458;-69
2022/07/18 14:50:06;;;;;;;5.10;1.40;;;37.00;30.30;;;;;;4982164;28;20485;-68
2022/07/18 14:52:34;;;;;;;1.83;1.83;;;36.70;30.00;;;;;;4991892;28;20470;-68
2022/07/18 14:55:01;;;;;;;1.80;1.50;;;36.70;30.30;;;;;;4983540;28;20450;-69
2022/07/18 14:57:27;;;;;;;1.57;1.57;;;36.70;30.00;;;;;;4976839;28;20520;-69
2022/07/18 14:59:54;;;;;;;1.60;1.60;;;36.60;29.90;;;;;;4976250;28;20469;-68
2022/07/18 15:02:21;;;;;;;1.80;1.70;;;36.60;31.70;;;;;;4975969;28;20847;-69
2022/07/18 15:04:48;;;;;;;1.97;1.73;;;36.60;31.20;;;;;;4976170;28;20457;-69
2022/07/18 15:07:14;;;;;;;4.40;1.90;;;36.60;31.90;;;;;;4976238;28;20482;-68
2022/07/18 15:09:42;;;;;;;1.80;1.70;;;36.70;31.50;;;;;;4976158;28;20461;-69
2022/07/18 15:12:09;;;;;;;1.63;1.50;;;36.80;31.90;;;;;;4976193;28;20533;-68
2022/07/18 15:14:36;;;;;;;2.60;1.83;;;36.90;31.70;;;;;;4976218;28;20454;-69
2022/07/18 15:17:03;;;;;;;1.77;1.67;;;36.70;30.80;;;;;;4976304;28;20450;-68
2022/07/18 15:19:30;;;;;;;1.60;1.50;;;36.60;30.60;;;;;;4975683;28;20945;-69
2022/07/18 15:21:56;;;;;;;3.00;1.50;;;36.40;31.00;;;;;;4975857;28;20478;-68
2022/07/18 15:24:23;;;;;;;1.87;1.77;;;36.30;31.10;;;;;;4976382;28;20454;-68
2022/07/18 15:26:51;;;;;;;2.03;1.80;;;36.10;32.30;;;;;;4975921;28;20835;-68
2022/07/18 15:29:18;;;;;;;1.60;1.50;;;35.90;32.60;;;;;;4976032;28;20458;-68
2022/07/18 15:31:44;;;;;;;1.90;1.80;;;36.00;32.30;;;;;;4975881;28;20981;-68
2022/07/18 15:34:11;;;;;;;3.10;2.17;;;36.10;31.50;;;;;;4975773;28;20461;-68
2022/07/18 15:36:38;;;;;;;1.87;1.70;;;36.10;32.30;;;;;;4975562;28;20461;-69
2022/07/18 15:39:04;;;;;;;2.60;2.00;;;36.10;32.80;;;;;;4975995;28;20458;-69
2022/07/18 15:41:31;;;;;;;4.30;1.50;;;36.10;32.30;;;;;;4976198;28;20480;-68
2022/07/18 15:44:00;;;;;;;1.80;1.70;;;36.10;31.80;;;;;;4976163;28;20458;-69
2022/07/18 15:46:26;;;;;;;2.27;1.70;;;36.20;32.40;;;;;;4975972;28;20474;-67
2022/07/18 15:48:53;;;;;;;1.73;1.63;;;36.10;31.80;;;;;;4975605;28;20454;-69
2022/07/18 15:51:20;;;;;;;4.93;1.70;;;36.00;32.00;;;;;;4975588;28;20474;-69
2022/07/18 15:53:47;;;;;;;2.07;1.90;;;35.80;31.80;;;;;;4975404;28;20450;-69
2022/07/18 15:56:14;;;;;;;1.77;1.67;;;35.70;31.50;;;;;;4975456;28;20454;-69
2022/07/18 15:58:40;;;;;;;1.97;1.87;;;35.80;32.80;;;;;;4975583;28;20465;-69
2022/07/18 16:01:09;;;;;;;2.17;2.07;;;35.70;32.80;;;;;;4975161;28;20486;-68
2022/07/18 16:03:36;;;;;;;2.00;1.90;;;35.60;33.00;;;;;;4975546;28;20457;-68
2022/07/18 16:06:02;;;;;;;2.30;2.10;;;35.70;33.30;;;;;;4975297;28;20481;-68
2022/07/18 16:08:29;;;;;;;2.07;1.90;;;35.70;32.10;;;;;;4974720;28;20454;-68
2022/07/18 16:10:56;;;;;;;2.07;1.90;;;35.80;32.90;;;;;;4975404;28;20466;-68
2022/07/18 16:13:23;;;;;;;1.87;1.87;;;35.80;32.60;;;;;;4975538;28;20480;-69
2022/07/18 16:15:49;;;;;;;2.87;2.30;;;35.80;32.90;;;;;;4975599;28;20461;-69
2022/07/18 16:18:18;;;;;;;2.13;1.93;;;35.80;33.30;;;;;;4975746;28;20469;-68
2022/07/18 16:20:44;;;;;;;2.53;2.20;;;35.70;32.40;;;;;;4975835;28;20532;-69
2022/07/18 16:23:11;;;;;;;2.23;2.07;;;35.60;32.70;;;;;;4975553;28;20458;-68
2022/07/18 16:25:39;;;;;;;2.60;2.33;;;35.60;32.40;;;;;;4975340;28;20480;-69
2022/07/18 16:28:06;;;;;;;3.27;1.73;;;35.50;32.60;;;;;;4976033;28;20458;-68
2022/07/18 16:30:33;;;;;;;2.60;2.40;;;35.50;32.70;;;;;;4975693;28;20822;-70
2022/07/18 16:32:59;;;;;;;2.10;1.77;;;35.50;33.70;;;;;;4975472;28;20458;-69
2022/07/18 16:35:28;;;;;;;2.03;1.80;;;35.50;33.10;;;;;;4975968;28;20458;-68
2022/07/18 16:37:55;;;;;;;2.13;1.80;;;35.40;33.50;;;;;;4976088;28;20454;-70
2022/07/18 16:40:22;;;;;;;2.40;2.20;;;35.40;33.70;;;;;;4976201;28;20859;-68
2022/07/18 16:42:49;;;;;;;5.50;3.30;;;35.40;34.00;;;;;;4978075;28;20473;-68
2022/07/18 16:45:16;;;;;;;1.90;1.80;;;35.50;33.70;;;;;;4976132;28;20938;-68
2022/07/18 16:47:43;;;;;;;2.40;1.87;;;35.40;33.20;;;;;;4975306;28;20481;-69
2022/07/18 16:50:11;;;;;;;2.30;2.20;;;35.30;33.30;;;;;;4975253;28;20457;-69
2022/07/18 16:52:40;;;;;;;2.27;2.17;;;35.20;33.60;;;;;;4975106;28;20490;-68
2022/07/18 16:55:08;;;;;;;2.07;1.97;;;35.10;34.00;;;;;;4975096;28;20454;-68